Time;durP1;ratioP1;P1;durP2;ratioP2;P2;SDS_P1;SDS_P2;PMS_P1;PMS_P2;Temp;Humidity;BMP_temperature;BMP_pressure;BME280_temperature;BME280_humidity;BME280_pressure;Samples;Min_cycle;Max_cycle;Signal;HPM_P1;HPM_P2
2021/07/01 00:00:54;;;;;;;12.20;7.63;;;19.40;99.00;;;;;;4251097;27;20062;-73
2021/07/01 00:02:57;;;;;;;10.90;8.25;;;19.40;98.90;;;;;;4257535;27;20047;-70
2021/07/01 00:05:01;;;;;;;10.48;8.07;;;19.30;98.80;;;;;;4261145;27;20111;-72
2021/07/01 00:07:05;;;;;;;19.27;7.75;;;19.30;99.20;;;;;;4258534;27;20051;-74
2021/07/01 00:09:14;;;;;;;13.48;8.32;;;19.40;99.00;;;;;;4261520;27;20069;-70
2021/07/01 00:11:17;;;;;;;10.63;7.65;;;19.30;99.10;;;;;;4258014;27;20057;-71
2021/07/01 00:13:20;;;;;;;11.57;7.82;;;19.20;99.30;;;;;;4256650;27;20061;-71
2021/07/01 00:15:26;;;;;;;13.55;8.18;;;19.30;99.40;;;;;;4255944;27;20058;-71
2021/07/01 00:17:29;;;;;;;12.85;8.20;;;19.30;99.40;;;;;;4252262;27;20062;-71
2021/07/01 00:19:33;;;;;;;11.80;9.13;;;19.30;99.20;;;;;;4250080;27;20065;-75
2021/07/01 00:21:38;;;;;;;11.77;8.90;;;19.40;99.30;;;;;;4243187;27;20051;-74
2021/07/01 00:23:41;;;;;;;12.40;8.70;;;19.40;99.20;;;;;;4251765;27;20051;-72
2021/07/01 00:25:45;;;;;;;13.00;8.43;;;19.30;99.50;;;;;;4251560;27;20085;-73
2021/07/01 00:27:49;;;;;;;10.65;8.10;;;19.30;99.40;;;;;;4234056;28;20051;-74
2021/07/01 00:29:52;;;;;;;11.73;7.50;;;19.20;99.20;;;;;;4249819;27;20051;-74
2021/07/01 00:31:55;;;;;;;10.00;7.55;;;19.20;99.20;;;;;;4250026;27;20051;-73
2021/07/01 00:33:58;;;;;;;13.20;7.80;;;19.30;99.00;;;;;;4251400;27;20130;-71
2021/07/01 00:36:01;;;;;;;11.07;7.47;;;19.30;99.00;;;;;;4251854;27;20047;-72
2021/07/01 00:38:05;;;;;;;10.30;7.20;;;19.30;99.00;;;;;;4250798;27;20062;-72
2021/07/01 00:40:10;;;;;;;9.48;7.00;;;19.30;99.00;;;;;;4251136;27;20143;-72
2021/07/01 00:42:13;;;;;;;10.52;7.55;;;19.40;98.90;;;;;;4250098;27;20082;-70
2021/07/01 00:44:17;;;;;;;11.93;7.13;;;19.30;99.20;;;;;;4250111;27;20057;-72
2021/07/01 00:46:20;;;;;;;11.55;7.03;;;19.00;99.30;;;;;;4249385;27;20055;-73
2021/07/01 00:48:23;;;;;;;12.75;7.55;;;19.00;99.60;;;;;;4247133;27;20412;-74
2021/07/01 00:50:26;;;;;;;13.18;6.97;;;19.00;99.50;;;;;;4247556;27;20066;-74
2021/07/01 00:52:29;;;;;;;9.70;7.00;;;19.00;99.50;;;;;;4228861;28;20569;-72
2021/07/01 00:54:34;;;;;;;10.32;6.70;;;19.10;99.30;;;;;;4247023;27;20054;-74
2021/07/01 00:56:37;;;;;;;11.48;7.53;;;19.10;99.40;;;;;;4229229;28;20133;-74
2021/07/01 00:58:40;;;;;;;9.77;6.95;;;18.90;99.60;;;;;;4247320;27;20145;-74
2021/07/01 01:01:01;;;;;;;10.55;6.43;;;18.90;99.50;;;;;;4230214;28;20059;-72
2021/07/01 01:03:04;;;;;;;8.80;6.15;;;19.10;99.40;;;;;;4239588;27;20059;-72
2021/07/01 01:05:08;;;;;;;8.07;6.47;;;19.00;99.30;;;;;;4247165;27;20062;-71
2021/07/01 01:07:11;;;;;;;10.32;6.90;;;19.00;99.30;;;;;;4250004;27;20071;-75
2021/07/01 01:09:14;;;;;;;10.80;6.55;;;18.70;99.60;;;;;;4249797;27;20110;-73
2021/07/01 01:11:24;;;;;;;8.52;7.30;;;18.80;99.80;;;;;;4251388;27;20095;-72
2021/07/01 01:13:27;;;;;;;13.07;6.93;;;18.70;99.90;;;;;;4248769;27;20047;-71
2021/07/01 01:15:30;;;;;;;11.13;7.38;;;18.70;99.90;;;;;;4247420;27;20047;-71
2021/07/01 01:17:34;;;;;;;10.80;6.95;;;18.70;99.90;;;;;;4247267;27;20059;-70
2021/07/01 01:19:37;;;;;;;11.60;7.55;;;18.80;99.90;;;;;;4224975;28;20510;-71
2021/07/01 01:21:44;;;;;;;9.88;7.10;;;18.80;99.90;;;;;;4246775;27;20148;-71
2021/07/01 01:23:47;;;;;;;9.18;7.05;;;19.00;99.70;;;;;;4244612;27;20138;-70
2021/07/01 01:25:55;;;;;;;8.80;7.22;;;18.90;99.80;;;;;;4246845;27;20062;-72
2021/07/01 01:27:58;;;;;;;10.95;7.63;;;19.00;99.70;;;;;;4251920;27;20043;-74
2021/07/01 01:30:01;;;;;;;9.80;6.97;;;19.00;99.60;;;;;;4251466;27;20222;-73
2021/07/01 01:32:05;;;;;;;10.27;7.85;;;19.10;99.40;;;;;;4250224;27;20057;-77
2021/07/01 01:34:08;;;;;;;12.43;8.20;;;19.10;99.50;;;;;;4246921;27;20054;-76
2021/07/01 01:36:11;;;;;;;13.77;8.93;;;19.20;99.40;;;;;;4246057;27;20059;-75
2021/07/01 01:38:16;;;;;;;12.32;9.13;;;19.20;99.20;;;;;;4246394;27;20059;-74
2021/07/01 01:40:19;;;;;;;12.13;9.07;;;19.20;99.40;;;;;;4242830;27;20059;-73
2021/07/01 01:42:22;;;;;;;13.55;9.60;;;19.20;99.50;;;;;;4227692;28;20094;-73
2021/07/01 01:44:25;;;;;;;13.13;9.18;;;19.30;99.30;;;;;;4244936;27;20047;-72
2021/07/01 01:46:36;;;;;;;12.43;9.10;;;19.30;99.20;;;;;;4246016;27;20051;-70
2021/07/01 01:48:39;;;;;;;12.73;10.10;;;19.40;99.50;;;;;;4245824;27;20430;-69
2021/07/01 01:50:43;;;;;;;13.85;9.20;;;19.20;99.40;;;;;;4246035;27;20051;-70
2021/07/01 01:52:46;;;;;;;12.88;9.60;;;19.30;99.40;;;;;;4246599;27;20491;-70
2021/07/01 01:54:51;;;;;;;15.68;10.60;;;19.30;99.60;;;;;;4245853;27;20043;-71
2021/07/01 01:56:54;;;;;;;13.98;9.02;;;19.30;99.50;;;;;;4245687;27;20112;-69
2021/07/01 01:58:57;;;;;;;13.40;9.15;;;19.40;99.30;;;;;;4246075;27;20521;-70
2021/07/01 02:01:00;;;;;;;14.18;9.77;;;19.40;99.40;;;;;;4224566;28;20447;-70
2021/07/01 02:03:04;;;;;;;14.32;9.95;;;19.30;99.80;;;;;;4246026;27;20055;-71
2021/07/01 02:05:09;;;;;;;13.55;10.07;;;19.40;99.40;;;;;;4245894;27;20043;-70
2021/07/01 02:07:12;;;;;;;11.00;8.40;;;19.40;99.30;;;;;;4245736;27;20055;-70
2021/07/01 02:09:15;;;;;;;16.00;9.27;;;19.40;99.30;;;;;;4246301;27;20456;-69
2021/07/01 02:11:19;;;;;;;15.10;9.40;;;19.40;99.40;;;;;;4246312;27;20134;-69
2021/07/01 02:13:22;;;;;;;13.40;9.95;;;19.30;99.70;;;;;;4246371;27;20111;-70
2021/07/01 02:15:26;;;;;;;11.75;9.85;;;19.30;99.90;;;;;;4246043;27;20081;-69
2021/07/01 02:17:29;;;;;;;13.93;10.15;;;19.20;99.90;;;;;;4246401;27;20411;-70
2021/07/01 02:19:32;;;;;;;13.77;9.75;;;19.30;99.70;;;;;;4245849;27;20055;-69
2021/07/01 02:21:35;;;;;;;13.38;10.00;;;19.20;99.80;;;;;;4242012;27;20058;-71
2021/07/01 02:23:39;;;;;;;16.55;9.95;;;19.20;99.70;;;;;;4245978;27;20055;-69
2021/07/01 02:25:42;;;;;;;12.85;9.25;;;19.10;99.90;;;;;;4245513;27;20050;-70
2021/07/01 02:27:46;;;;;;;12.05;9.00;;;19.10;99.70;;;;;;4245329;27;20055;-69
2021/07/01 02:29:49;;;;;;;15.25;9.45;;;19.10;99.80;;;;;;4245523;27;20523;-70
2021/07/01 02:31:52;;;;;;;11.82;9.45;;;19.20;99.80;;;;;;4226151;28;20055;-71
2021/07/01 02:33:55;;;;;;;16.42;10.25;;;19.10;99.90;;;;;;4245493;27;20051;-70
2021/07/01 02:35:58;;;;;;;13.60;9.63;;;19.10;99.90;;;;;;4246118;27;20059;-70
2021/07/01 02:38:01;;;;;;;14.07;10.18;;;19.00;99.90;;;;;;4247906;27;20058;-70
2021/07/01 02:40:11;;;;;;;15.57;9.95;;;19.00;99.90;;;;;;4248373;27;20057;-70
2021/07/01 02:42:14;;;;;;;15.23;9.60;;;19.00;99.90;;;;;;4247199;27;20065;-70
2021/07/01 02:44:18;;;;;;;17.20;10.30;;;18.90;99.90;;;;;;4247701;27;20049;-75
2021/07/01 02:46:21;;;;;;;15.45;9.70;;;19.00;99.90;;;;;;4247763;27;20055;-71
2021/07/01 02:48:25;;;;;;;14.75;9.85;;;19.00;99.90;;;;;;4247444;27;20055;-70
2021/07/01 02:50:28;;;;;;;14.50;10.43;;;19.10;99.90;;;;;;4245175;27;20055;-69
2021/07/01 02:52:31;;;;;;;16.77;10.27;;;19.00;99.90;;;;;;4245011;27;20063;-68
2021/07/01 02:54:34;;;;;;;12.48;10.18;;;19.00;99.90;;;;;;4246429;27;20051;-69
2021/07/01 02:56:40;;;;;;;13.23;9.05;;;19.00;99.90;;;;;;4248305;27;20055;-70
2021/07/01 02:58:43;;;;;;;15.80;10.05;;;19.00;99.90;;;;;;4248502;27;20047;-70
2021/07/01 03:00:47;;;;;;;11.65;9.70;;;18.90;99.90;;;;;;4248490;27;20046;-69
2021/07/01 03:02:50;;;;;;;18.60;10.43;;;19.00;99.90;;;;;;4247905;27;20436;-71
2021/07/01 03:04:54;;;;;;;15.88;10.27;;;19.00;99.90;;;;;;4248532;27;20047;-69
2021/07/01 03:06:57;;;;;;;14.50;9.98;;;19.00;99.90;;;;;;4247847;27;20086;-70
2021/07/01 03:09:00;;;;;;;15.32;9.75;;;19.00;99.90;;;;;;4248182;27;20058;-71
2021/07/01 03:11:03;;;;;;;12.10;9.40;;;19.10;99.90;;;;;;4247949;27;20063;-72
2021/07/01 03:13:06;;;;;;;15.05;9.98;;;19.00;99.90;;;;;;4248051;27;20154;-72
2021/07/01 03:15:11;;;;;;;15.02;10.48;;;19.00;99.90;;;;;;4248023;27;20053;-70
2021/07/01 03:17:15;;;;;;;13.23;10.35;;;19.00;99.90;;;;;;4247895;27;20051;-72
2021/07/01 03:19:18;;;;;;;14.95;10.20;;;18.90;99.90;;;;;;4248164;27;20051;-72
2021/07/01 03:21:22;;;;;;;14.80;10.05;;;19.00;99.90;;;;;;4249191;27;20053;-72
2021/07/01 03:23:25;;;;;;;12.57;9.80;;;19.00;99.90;;;;;;4249817;27;20563;-71
2021/07/01 03:25:29;;;;;;;14.57;10.98;;;19.00;99.90;;;;;;4249494;27;20055;-72
2021/07/01 03:27:32;;;;;;;21.65;11.27;;;18.90;99.90;;;;;;4248401;27;20053;-72
2021/07/01 03:29:36;;;;;;;13.60;10.45;;;18.90;99.90;;;;;;4248341;27;20514;-72
2021/07/01 03:31:39;;;;;;;12.93;9.93;;;18.90;99.90;;;;;;4248199;27;20067;-72
2021/07/01 03:33:44;;;;;;;16.13;10.40;;;18.90;99.90;;;;;;4247936;27;20054;-71
2021/07/01 03:35:47;;;;;;;15.55;10.57;;;19.00;99.90;;;;;;4247817;27;20059;-71
2021/07/01 03:37:50;;;;;;;15.68;10.10;;;19.00;99.90;;;;;;4247708;27;20047;-72
2021/07/01 03:39:53;;;;;;;11.82;10.48;;;19.00;99.90;;;;;;4247767;27;20043;-72
2021/07/01 03:41:56;;;;;;;16.77;11.55;;;19.00;99.90;;;;;;4248523;27;20075;-71
2021/07/01 03:43:59;;;;;;;15.48;11.18;;;18.80;99.90;;;;;;4248092;27;20047;-71
2021/07/01 03:46:02;;;;;;;17.63;11.35;;;18.80;99.90;;;;;;4237546;27;20128;-72
2021/07/01 03:48:06;;;;;;;15.68;11.60;;;18.70;99.90;;;;;;4237057;27;20049;-71
2021/07/01 03:50:12;;;;;;;14.05;11.77;;;18.80;99.90;;;;;;4248166;27;20057;-71
2021/07/01 03:52:15;;;;;;;16.75;11.95;;;18.80;99.90;;;;;;4247555;27;20473;-71
2021/07/01 03:54:18;;;;;;;14.82;11.13;;;18.80;99.90;;;;;;4248195;27;20496;-71
2021/07/01 03:56:21;;;;;;;15.10;10.90;;;18.80;99.90;;;;;;4248918;27;20051;-71
2021/07/01 03:58:24;;;;;;;13.68;10.73;;;18.80;99.90;;;;;;4252146;27;20061;-70
2021/07/01 04:00:28;;;;;;;15.05;11.57;;;18.90;99.90;;;;;;4253266;27;20066;-72
2021/07/01 04:02:31;;;;;;;18.57;12.47;;;18.70;99.90;;;;;;4252491;27;20552;-71
2021/07/01 04:04:34;;;;;;;17.65;13.80;;;18.80;99.90;;;;;;4249552;27;20053;-71
2021/07/01 04:06:39;;;;;;;14.80;12.25;;;18.80;99.90;;;;;;4247195;27;20047;-73
2021/07/01 04:08:42;;;;;;;16.05;12.35;;;18.80;99.90;;;;;;4247008;27;20411;-74
2021/07/01 04:10:45;;;;;;;18.45;12.18;;;18.70;99.90;;;;;;4236086;27;20047;-71
2021/07/01 04:12:49;;;;;;;18.25;13.43;;;18.70;99.90;;;;;;4247542;27;20063;-71
2021/07/01 04:14:52;;;;;;;14.05;10.98;;;18.70;99.90;;;;;;4246803;27;20057;-70
2021/07/01 04:16:55;;;;;;;18.40;12.10;;;18.70;99.90;;;;;;4246928;27;20055;-71
2021/07/01 04:18:58;;;;;;;17.67;12.15;;;18.80;99.90;;;;;;4246864;27;20057;-71
2021/07/01 04:21:01;;;;;;;14.95;11.57;;;18.70;99.90;;;;;;4247061;27;20057;-72
2021/07/01 04:23:06;;;;;;;17.58;13.32;;;18.80;99.90;;;;;;4247201;27;20039;-73
2021/07/01 04:25:10;;;;;;;15.90;12.30;;;18.70;99.90;;;;;;4246908;27;20138;-71
2021/07/01 04:27:13;;;;;;;17.42;12.15;;;18.80;99.90;;;;;;4247541;27;20047;-70
2021/07/01 04:29:16;;;;;;;18.30;12.93;;;18.70;99.90;;;;;;4247549;27;20061;-71
2021/07/01 04:31:20;;;;;;;18.60;13.20;;;18.70;99.90;;;;;;4247356;27;20051;-71
2021/07/01 04:33:24;;;;;;;19.55;12.55;;;18.70;99.90;;;;;;4247112;27;20484;-73
2021/07/01 04:35:27;;;;;;;18.73;12.93;;;18.80;99.90;;;;;;4257610;27;20442;-70
2021/07/01 04:37:30;;;;;;;23.50;13.50;;;18.80;99.90;;;;;;4260462;27;20082;-72
2021/07/01 04:39:35;;;;;;;15.18;12.55;;;18.80;99.90;;;;;;4261084;27;20043;-73
2021/07/01 04:41:38;;;;;;;16.08;12.73;;;18.80;99.90;;;;;;4256996;27;20058;-72
2021/07/01 04:43:41;;;;;;;17.55;12.38;;;18.80;99.90;;;;;;4259653;27;20047;-71
2021/07/01 04:45:44;;;;;;;17.73;13.07;;;18.90;99.90;;;;;;4253246;27;20054;-69
2021/07/01 04:47:47;;;;;;;19.67;12.05;;;18.90;99.90;;;;;;4252965;27;20061;-70
2021/07/01 04:49:50;;;;;;;18.73;11.75;;;19.00;99.90;;;;;;4253005;27;20051;-70
2021/07/01 04:51:53;;;;;;;17.67;11.50;;;19.00;99.90;;;;;;4245490;27;20051;-69
2021/07/01 04:53:56;;;;;;;15.98;12.68;;;19.00;99.90;;;;;;4252734;27;20569;-72
2021/07/01 04:56:01;;;;;;;13.32;11.52;;;19.00;99.90;;;;;;4246441;27;20070;-69
2021/07/01 04:58:04;;;;;;;15.57;12.40;;;19.00;99.90;;;;;;4246824;27;20061;-70
2021/07/01 05:00:08;;;;;;;19.23;12.85;;;19.10;99.90;;;;;;4246675;27;20130;-70
2021/07/01 05:02:11;;;;;;;14.93;11.90;;;19.00;99.90;;;;;;4246275;27;20051;-69
2021/07/01 05:04:15;;;;;;;14.63;11.75;;;19.00;99.90;;;;;;4246235;27;20143;-69
2021/07/01 05:06:22;;;;;;;19.88;12.45;;;19.00;99.90;;;;;;4246292;27;20392;-69
2021/07/01 05:08:25;;;;;;;17.30;12.63;;;18.90;99.90;;;;;;4246808;27;20414;-69
2021/07/01 05:10:28;;;;;;;16.98;12.77;;;18.80;99.90;;;;;;4246793;27;20059;-69
2021/07/01 05:12:33;;;;;;;23.15;12.48;;;18.90;99.90;;;;;;4246954;27;20065;-74
2021/07/01 05:14:36;;;;;;;19.02;12.80;;;18.90;99.90;;;;;;4232159;28;20055;-71
2021/07/01 05:16:39;;;;;;;19.30;12.02;;;19.00;99.90;;;;;;4257266;27;20047;-69
2021/07/01 05:18:42;;;;;;;21.73;12.38;;;18.80;99.90;;;;;;4257583;27;20051;-71
2021/07/01 05:20:45;;;;;;;19.90;13.23;;;18.90;99.90;;;;;;4259604;27;20067;-72
2021/07/01 05:22:48;;;;;;;16.50;12.43;;;18.90;99.90;;;;;;4253980;27;20071;-74
2021/07/01 05:24:51;;;;;;;22.55;13.18;;;18.90;99.90;;;;;;4250457;27;20059;-72
2021/07/01 05:26:56;;;;;;;19.73;12.35;;;18.90;99.90;;;;;;4248972;27;20050;-77
2021/07/01 05:29:01;;;;;;;16.80;12.77;;;18.90;99.90;;;;;;4248010;27;20047;-77
2021/07/01 05:31:24;;;;;;;14.88;11.80;;;19.00;99.90;;;;;;4248186;27;20043;-73
2021/07/01 05:33:27;;;;;;;16.13;12.80;;;18.90;99.90;;;;;;4228643;28;20412;-73
2021/07/01 05:35:32;;;;;;;22.83;12.50;;;19.00;99.90;;;;;;4246544;27;20058;-75
2021/07/01 05:37:35;;;;;;;17.25;13.05;;;19.00;99.90;;;;;;4247346;27;20047;-73
2021/07/01 05:39:39;;;;;;;24.33;15.02;;;19.00;99.90;;;;;;4247380;27;20059;-70
2021/07/01 05:41:42;;;;;;;18.25;13.63;;;18.80;99.90;;;;;;4246908;27;20051;-70
2021/07/01 05:43:45;;;;;;;27.55;14.20;;;18.90;99.90;;;;;;4247200;27;20134;-73
2021/07/01 05:45:49;;;;;;;20.23;14.15;;;18.90;99.90;;;;;;4245593;27;20313;-75
2021/07/01 05:47:53;;;;;;;22.02;15.50;;;19.00;99.90;;;;;;4242966;27;20050;-74
2021/07/01 05:49:56;;;;;;;19.77;13.35;;;18.90;99.90;;;;;;4246132;27;20051;-74
2021/07/01 05:52:03;;;;;;;26.63;14.13;;;18.90;99.90;;;;;;4246991;27;20079;-72
2021/07/01 05:54:26;;;;;;;22.65;13.80;;;19.00;99.90;;;;;;4246014;27;20053;-74
2021/07/01 05:56:36;;;;;;;19.33;13.88;;;19.00;99.90;;;;;;4246163;27;20047;-74
2021/07/01 05:58:39;;;;;;;20.25;14.60;;;19.10;99.90;;;;;;4245951;27;20057;-72
2021/07/01 06:00:42;;;;;;;20.00;14.50;;;19.00;99.90;;;;;;4228780;28;20058;-74
2021/07/01 06:02:47;;;;;;;23.98;12.48;;;19.00;99.90;;;;;;4218382;28;20050;-77
2021/07/01 06:04:51;;;;;;;24.80;14.73;;;19.10;99.90;;;;;;4245846;27;20516;-75
2021/07/01 06:06:54;;;;;;;20.00;13.43;;;19.20;99.90;;;;;;4245577;27;20511;-73
2021/07/01 06:08:59;;;;;;;21.23;13.93;;;19.20;99.90;;;;;;4245814;27;20054;-74
2021/07/01 06:11:06;;;;;;;21.77;13.93;;;19.20;99.90;;;;;;4245541;27;20077;-76
2021/07/01 06:13:10;;;;;;;21.25;14.00;;;19.30;99.90;;;;;;4245684;27;20255;-71
2021/07/01 06:15:14;;;;;;;19.02;12.85;;;19.30;99.90;;;;;;4245753;27;20058;-71
2021/07/01 06:17:17;;;;;;;19.73;13.57;;;19.30;99.90;;;;;;4245548;27;20055;-72
2021/07/01 06:19:22;;;;;;;31.02;15.13;;;19.20;99.90;;;;;;4227406;28;20058;-70
2021/07/01 06:21:27;;;;;;;15.20;11.50;;;19.30;99.90;;;;;;4225451;28;20054;-69
2021/07/01 06:23:30;;;;;;;23.65;12.02;;;19.30;99.90;;;;;;4245455;27;20069;-73
2021/07/01 06:25:34;;;;;;;18.10;12.15;;;19.20;99.80;;;;;;4246988;27;20054;-69
2021/07/01 06:27:38;;;;;;;21.42;11.75;;;19.40;99.90;;;;;;4246147;27;20443;-73
2021/07/01 06:29:42;;;;;;;17.23;11.82;;;19.50;99.80;;;;;;4250718;27;20062;-71
2021/07/01 06:31:45;;;;;;;17.67;11.88;;;19.50;99.40;;;;;;4233839;28;20047;-71
2021/07/01 06:33:49;;;;;;;19.23;11.52;;;19.50;99.80;;;;;;4241715;27;20055;-71
2021/07/01 06:35:55;;;;;;;17.30;12.00;;;19.50;99.80;;;;;;4249412;27;20047;-71
2021/07/01 06:38:02;;;;;;;17.83;11.18;;;19.60;99.20;;;;;;4231067;28;20058;-74
2021/07/01 06:40:08;;;;;;;15.85;11.60;;;19.80;99.20;;;;;;4248927;27;20050;-72
2021/07/01 06:42:11;;;;;;;16.70;12.65;;;19.70;99.10;;;;;;4250384;27;20054;-75
2021/07/01 06:44:15;;;;;;;14.45;12.20;;;19.60;98.40;;;;;;4251510;27;20059;-73
2021/07/01 06:46:22;;;;;;;22.45;11.70;;;19.60;99.10;;;;;;4252442;27;20043;-74
2021/07/01 06:48:26;;;;;;;21.73;11.90;;;19.70;98.70;;;;;;4252263;27;20047;-72
2021/07/01 06:50:30;;;;;;;14.70;11.25;;;20.00;98.70;;;;;;4250293;27;20304;-71
2021/07/01 06:52:34;;;;;;;15.70;10.23;;;20.00;97.30;;;;;;4236521;28;20057;-71
2021/07/01 06:54:40;;;;;;;10.75;9.02;;;20.00;98.20;;;;;;4241801;27;20046;-74
2021/07/01 06:56:44;;;;;;;17.10;11.00;;;20.30;98.10;;;;;;4251804;27;20130;-73
2021/07/01 06:58:47;;;;;;;18.08;11.32;;;20.50;97.20;;;;;;4252465;27;20065;-72
2021/07/01 07:00:50;;;;;;;14.75;10.02;;;20.40;96.80;;;;;;4251280;27;20070;-72
2021/07/01 07:02:54;;;;;;;14.73;10.98;;;20.50;97.30;;;;;;4252778;27;20047;-71
2021/07/01 07:04:57;;;;;;;16.55;10.70;;;20.50;97.10;;;;;;4234248;28;20412;-73
2021/07/01 07:07:04;;;;;;;17.88;10.45;;;20.40;96.40;;;;;;4252047;27;20051;-74
2021/07/01 07:09:09;;;;;;;14.27;11.48;;;20.40;96.50;;;;;;4253990;27;20051;-74
2021/07/01 07:11:11;;;;;;;;;;;20.40;96.00;;;;;;4234013;28;20462;-73
2021/07/01 07:13:15;;;;;;;22.45;10.98;;;20.40;96.80;;;;;;4253011;27;19938;-73
2021/07/01 07:15:25;;;;;;;16.73;12.80;;;20.50;96.70;;;;;;4252895;27;20123;-72
2021/07/01 07:17:32;;;;;;;20.63;13.48;;;20.50;96.40;;;;;;4253069;27;20051;-70
2021/07/01 07:19:36;;;;;;;19.83;14.43;;;20.40;96.00;;;;;;4249680;27;20059;-73
2021/07/01 07:21:44;;;;;;;18.60;13.70;;;20.40;96.30;;;;;;4237735;27;20052;-71
2021/07/01 07:23:52;;;;;;;21.15;14.20;;;20.40;96.80;;;;;;4248230;27;20505;-72
2021/07/01 07:25:58;;;;;;;21.88;14.13;;;20.60;96.40;;;;;;4247865;27;20042;-72
2021/07/01 07:28:09;;;;;;;20.30;14.35;;;20.40;95.30;;;;;;4248044;27;20047;-72
2021/07/01 07:30:16;;;;;;;22.05;13.88;;;20.30;96.20;;;;;;4247880;27;20053;-73
2021/07/01 07:32:22;;;;;;;19.65;14.30;;;20.60;96.00;;;;;;4248274;27;20070;-71
2021/07/01 07:34:26;;;;;;;20.98;13.98;;;20.60;96.40;;;;;;4247982;27;20061;-73
2021/07/01 07:36:29;;;;;;;18.50;13.63;;;20.70;95.90;;;;;;4229836;28;20062;-73
2021/07/01 07:38:32;;;;;;;24.65;14.07;;;20.80;96.00;;;;;;4248176;27;20051;-73
2021/07/01 07:40:38;;;;;;;16.88;12.57;;;20.90;95.30;;;;;;4247230;27;20529;-71
2021/07/01 07:42:45;;;;;;;24.30;13.98;;;20.70;95.50;;;;;;4248137;27;20062;-71
2021/07/01 07:44:48;;;;;;;20.92;13.98;;;20.70;96.10;;;;;;4251556;27;20047;-72
2021/07/01 07:46:52;;;;;;;19.13;14.07;;;20.90;95.70;;;;;;4248534;27;20052;-72
2021/07/01 07:48:55;;;;;;;26.63;14.70;;;21.10;95.80;;;;;;4254410;27;20057;-72
2021/07/01 07:51:01;;;;;;;23.70;15.13;;;20.90;95.00;;;;;;4250065;27;20467;-75
2021/07/01 07:53:07;;;;;;;22.00;14.73;;;20.80;94.70;;;;;;4248022;27;20403;-72
2021/07/01 07:55:11;;;;;;;22.73;15.07;;;20.90;95.60;;;;;;4247579;27;20130;-73
2021/07/01 07:57:15;;;;;;;19.58;13.77;;;21.20;95.70;;;;;;4247654;27;20086;-74
2021/07/01 07:59:23;;;;;;;21.75;14.68;;;21.40;95.80;;;;;;4247714;27;20051;-75
2021/07/01 08:01:31;;;;;;;19.83;13.93;;;21.70;95.60;;;;;;4247624;27;20093;-72
2021/07/01 08:03:37;;;;;;;19.27;14.55;;;21.80;94.30;;;;;;4236748;27;20065;-72
2021/07/01 08:05:41;;;;;;;19.92;13.10;;;21.50;93.70;;;;;;4247553;27;20062;-72
2021/07/01 08:07:44;;;;;;;20.97;14.13;;;21.60;93.80;;;;;;4247411;27;20055;-72
2021/07/01 08:09:48;;;;;;;21.05;13.30;;;21.60;93.70;;;;;;4229866;27;20529;-73
2021/07/01 08:11:54;;;;;;;19.33;13.75;;;21.80;94.20;;;;;;4248188;27;20057;-74
2021/07/01 08:13:59;;;;;;;21.23;14.45;;;21.70;93.30;;;;;;4247834;27;20062;-76
2021/07/01 08:16:06;;;;;;;20.70;14.18;;;21.90;93.40;;;;;;4247279;27;20061;-73
2021/07/01 08:18:20;;;;;;;20.63;13.65;;;21.60;93.70;;;;;;4229014;27;20048;-71
2021/07/01 08:20:24;;;;;;;16.83;13.77;;;21.70;94.80;;;;;;4236231;27;20085;-72
2021/07/01 08:22:27;;;;;;;20.33;13.43;;;22.00;94.20;;;;;;4246881;27;20055;-73
2021/07/01 08:24:30;;;;;;;20.85;13.98;;;22.10;94.80;;;;;;4247057;27;20059;-72
2021/07/01 08:26:33;;;;;;;18.08;13.05;;;22.10;93.30;;;;;;4247479;27;20055;-75
2021/07/01 08:28:37;;;;;;;19.10;12.40;;;22.10;94.30;;;;;;4246984;27;20058;-71
2021/07/01 08:30:40;;;;;;;20.70;14.50;;;22.20;94.10;;;;;;4247568;27;20398;-71
2021/07/01 08:32:47;;;;;;;19.88;13.25;;;22.20;93.10;;;;;;4246715;27;20053;-74
2021/07/01 08:34:50;;;;;;;16.40;12.80;;;22.20;94.30;;;;;;4246921;27;20441;-71
2021/07/01 08:36:54;;;;;;;21.55;14.45;;;22.30;93.50;;;;;;4246896;27;20058;-74
2021/07/01 08:38:57;;;;;;;25.20;14.07;;;22.20;92.70;;;;;;4246510;27;20061;-74
2021/07/01 08:41:09;;;;;;;19.63;13.60;;;22.30;93.20;;;;;;4247065;27;20051;-73
2021/07/01 08:43:16;;;;;;;23.77;14.60;;;22.20;93.10;;;;;;4246689;27;20206;-73
2021/07/01 08:45:22;;;;;;;25.48;12.90;;;22.20;92.70;;;;;;4246966;27;20059;-72
2021/07/01 08:47:30;;;;;;;22.02;13.82;;;22.30;93.30;;;;;;4246728;27;20047;-74
2021/07/01 08:49:46;;;;;;;25.30;13.05;;;21.90;92.50;;;;;;4246649;27;20055;-71
2021/07/01 08:51:49;;;;;;;21.35;13.18;;;21.80;93.20;;;;;;4234472;27;20134;-74
2021/07/01 08:54:23;;;;;;;18.33;13.00;;;21.60;92.80;;;;;;4241268;27;20047;-72
2021/07/01 08:56:34;;;;;;;17.75;12.63;;;21.60;92.80;;;;;;4247213;27;20524;-71
2021/07/01 08:58:43;;;;;;;23.38;12.15;;;21.90;94.10;;;;;;4249760;27;20051;-75
2021/07/01 09:00:49;;;;;;;19.42;13.05;;;22.00;92.90;;;;;;4252365;27;20057;-73
2021/07/01 09:03:02;;;;;;;20.40;11.18;;;22.10;93.10;;;;;;4252175;27;20057;-74
2021/07/01 09:05:13;;;;;;;19.30;12.70;;;22.30;93.70;;;;;;4247579;27;20062;-74
2021/07/01 09:07:20;;;;;;;18.35;13.18;;;21.90;91.90;;;;;;4247098;27;20057;-75
2021/07/01 09:09:29;;;;;;;18.48;13.57;;;21.50;92.40;;;;;;4246290;27;20057;-73
2021/07/01 09:11:35;;;;;;;20.00;13.13;;;21.70;92.60;;;;;;4228812;28;20531;-77
2021/07/01 09:13:43;;;;;;;17.80;11.57;;;21.60;92.80;;;;;;4246642;27;20415;-73
2021/07/01 09:15:48;;;;;;;17.88;10.98;;;21.50;91.90;;;;;;4246626;27;20058;-74
2021/07/01 09:17:52;;;;;;;15.55;11.00;;;21.50;92.50;;;;;;4246415;27;20057;-73
2021/07/01 09:19:56;;;;;;;24.02;12.05;;;21.60;92.60;;;;;;4246499;27;20530;-72
2021/07/01 09:22:02;;;;;;;21.58;12.35;;;21.70;92.40;;;;;;4233081;27;20206;-72
2021/07/01 09:24:05;;;;;;;17.67;11.27;;;21.80;92.80;;;;;;4243731;27;20502;-73
2021/07/01 09:26:11;;;;;;;19.90;12.30;;;22.00;93.00;;;;;;4246303;27;20141;-72
2021/07/01 09:28:15;;;;;;;21.10;12.63;;;21.90;92.60;;;;;;4246312;27;20051;-70
2021/07/01 09:30:24;;;;;;;18.90;11.82;;;22.10;92.80;;;;;;4245988;27;20055;-75
2021/07/01 09:32:29;;;;;;;16.27;11.25;;;22.20;92.80;;;;;;4246276;27;20059;-71
2021/07/01 09:34:33;;;;;;;18.80;12.73;;;22.40;92.60;;;;;;4228197;28;20055;-74
2021/07/01 09:36:37;;;;;;;23.77;11.88;;;22.50;92.30;;;;;;4246122;27;20571;-73
2021/07/01 09:38:43;;;;;;;16.88;11.90;;;22.60;92.30;;;;;;4246730;27;20051;-73
2021/07/01 09:40:47;;;;;;;21.42;11.68;;;22.70;92.40;;;;;;4227929;28;20054;-72
2021/07/01 09:42:53;;;;;;;17.52;11.63;;;22.70;91.00;;;;;;4246011;27;20059;-73
2021/07/01 09:45:04;;;;;;;20.08;11.18;;;22.70;91.80;;;;;;4246023;27;20460;-72
2021/07/01 09:47:10;;;;;;;15.23;10.45;;;22.80;91.50;;;;;;4245242;27;20059;-71
2021/07/01 09:49:20;;;;;;;18.27;9.48;;;22.80;90.20;;;;;;4231748;28;20058;-71
2021/07/01 09:51:26;;;;;;;17.45;9.73;;;22.90;90.90;;;;;;4238170;27;20054;-72
2021/07/01 09:53:31;;;;;;;19.17;10.45;;;23.00;90.30;;;;;;4229457;28;20133;-73
2021/07/01 09:55:37;;;;;;;19.23;10.70;;;22.80;87.30;;;;;;4247301;27;20062;-73
2021/07/01 09:57:44;;;;;;;15.57;10.07;;;22.90;90.00;;;;;;4228651;28;20081;-72
2021/07/01 09:59:49;;;;;;;15.50;11.00;;;22.90;90.20;;;;;;4228316;28;20575;-74
2021/07/01 10:01:52;;;;;;;16.30;10.43;;;23.00;88.30;;;;;;4241602;27;20058;-72
2021/07/01 10:03:57;;;;;;;15.27;10.13;;;23.30;90.30;;;;;;4245797;27;20043;-75
2021/07/01 10:06:15;;;;;;;14.90;11.00;;;23.40;90.90;;;;;;4249233;27;20057;-75
2021/07/01 10:08:18;;;;;;;15.98;10.65;;;23.50;90.40;;;;;;4240245;27;20062;-70
2021/07/01 10:10:22;;;;;;;21.27;11.60;;;23.50;90.40;;;;;;4232694;28;20116;-71
2021/07/01 10:12:29;;;;;;;14.35;10.32;;;23.60;87.90;;;;;;4238504;27;20054;-71
2021/07/01 10:14:38;;;;;;;14.52;10.27;;;23.50;89.60;;;;;;4237068;28;20142;-71
2021/07/01 10:16:42;;;;;;;18.88;11.35;;;23.50;90.30;;;;;;4251366;27;20043;-72
2021/07/01 10:18:46;;;;;;;17.33;11.15;;;23.50;89.70;;;;;;4253596;27;20284;-70
2021/07/01 10:20:51;;;;;;;15.60;11.17;;;23.50;87.50;;;;;;4253399;27;20055;-73
2021/07/01 10:22:54;;;;;;;;;;;23.50;89.60;;;;;;4250374;27;20462;-73
2021/07/01 10:24:59;;;;;;;17.60;11.52;;;23.40;89.70;;;;;;4250351;27;19927;-73
2021/07/01 10:27:03;;;;;;;20.02;11.40;;;23.50;90.40;;;;;;4250105;27;20528;-73
2021/07/01 10:29:08;;;;;;;18.15;11.55;;;23.50;90.90;;;;;;4253432;27;20055;-72
2021/07/01 10:31:14;;;;;;;17.73;10.65;;;23.60;90.20;;;;;;4251240;27;20058;-73
2021/07/01 10:33:25;;;;;;;20.38;11.13;;;23.60;90.30;;;;;;4242226;28;20473;-72
2021/07/01 10:35:30;;;;;;;17.85;12.15;;;23.80;90.20;;;;;;4255729;28;20059;-71